2020-01-24 - 02:06:00

SR: 0721 - SS: 1601

RWY: 25


OBSERVATION: n/a

RVR Mean 1 min: (Runway Visual Range)
A: P2000 - B: P2000 - C: P2000
RVR Mean 10 min:
A: P2000 - B: 1500 - C: 1500
WARNING: n/a
W25: 130-160(140-02kt) 01kt-02kt
W07: 110-170(160-01kt) 01kt-02kt
OTHER: n/a

QFE: (tatsächlicher Luftdruck) 1019.2 hPa = 30.09 inHg
QNH:(Luftdruck auf Meereshöhe) 1025.0 hPa = 30.26 inHg
Temperatur: -3.0 °C
Dew point(Taupunkt): -4.1 °C

METAR:  00394 SADL31 EDDG 240150 METAR EDDG 240150Z VRB01KT 1600 R25/1400D BCFG BR FEW001 M03/M04 Q1025 TEMPO 1200= 
METAR (aus weather.noaa.gov):
2020/01/24 01:50 EDDG 240150Z VRB01KT 1600 R25/1400D BCFG BR FEW001 M03/M04 Q1025 TEMPO 1200 0

TAF (aus weather.noaa.gov):
2020/01/23 21:41 TAF AMD EDDG 232124Z 2321/2418 VRB02KT 3000 BCFG FEW001 BECMG 2321/2324 1200 BR BKN004 PROB40 TEMPO 2322/2410 0500 FZFG BKN001 BECMG 2408/2411 3000 BKN007 PROB40 TEMPO 2412/2418 5000 BKN012 0
NOWCAST
895
FODL44 EDDG 240200
FODL44 EDDG 2001240205
# Nowcasting EDDG 24.01.2020 02:05 UTC
Parameter/Stunde03040506070809
Windrichtung170180170190190190200
Windgeschwindigkeit1122223
Böen--------------
Lufttemperatur-3-3-3-2-2-1-0
Taupunkt-3-3-3-3-2-2-1
Belagstemperatur-5-5-4-4-3-2-1
Wetter-vorherrschendFZFGFZFGFZFGFZFGFZFGFZFGFZFG
QNH1025102510241024102410241024
Wind in 5000 ft250/05250/05230/05230/05250/05260/05270/05
Wind in 3000 ft230/05230/05220/05220/05230/05220/05230/05
Wind in 2000 ft250/10250/10240/10230/10220/10200/10200/10
Wind in 1000 ft270/05270/10270/10260/05240/10220/10220/10